Time,TemperatureF,DewpointF,PressureIn,WindDirection,WindDirectionDegrees,WindSpeedMPH,WindSpeedGustMPH,Humidity,HourlyPrecipIn,Conditions,Clouds,dailyrainin,SoftwareType,DateUTC
2013-12-23 00:01:00,33.4,33.4,30.06,ESE,111,0.0,0.0,100,0.00,,,0.00,WUHU216DAVISWMX,2013-12-23 05:01:00,
2013-12-23 00:06:00,33.4,33.4,30.07,ESE,111,0.0,0.0,100,0.00,,,0.00,WUHU216DAVISWMX,2013-12-23 05:06:00,
2013-12-23 00:11:00,33.2,33.2,30.07,ESE,111,0.0,0.0,100,0.00,,,0.00,WUHU216DAVISWMX,2013-12-23 05:11:00,
2013-12-23 00:16:00,33.2,33.2,30.08,ESE,111,0.0,0.0,100,0.00,,,0.00,WUHU216DAVISWMX,2013-12-23 05:16:00,
2013-12-23 00:21:00,33.1,33.1,30.09,East,91,0.0,0.0,100,0.00,,,0.00,WUHU216DAVISWMX,2013-12-23 05:21:00,
2013-12-23 00:26:00,33.3,33.3,30.07,East,91,0.0,0.0,100,0.00,,,0.00,WUHU216DAVISWMX,2013-12-23 05:26:00,
2013-12-23 00:31:00,33.2,33.2,30.08,East,91,0.0,0.0,100,0.00,,,0.00,WUHU216DAVISWMX,2013-12-23 05:31:00,
2013-12-23 00:36:00,33.1,33.1,30.08,East,91,0.0,0.0,100,0.00,,,0.00,WUHU216DAVISWMX,2013-12-23 05:36:00,
2013-12-23 00:41:00,33.2,33.2,30.08,East,91,0.0,0.0,100,0.00,,,0.00,WUHU216DAVISWMX,2013-12-23 05:41:00,
2013-12-23 00:46:00,33.3,33.3,30.06,East,91,0.0,0.0,100,0.00,,,0.00,WUHU216DAVISWMX,2013-12-23 05:46:00,
2013-12-23 00:51:00,33.2,33.2,30.08,East,91,0.0,0.0,100,0.00,,,0.00,WUHU216DAVISWMX,2013-12-23 05:51:00,
2013-12-23 00:56:00,33.3,33.3,30.08,East,91,0.0,0.0,100,0.00,,,0.00,WUHU216DAVISWMX,2013-12-23 05:56:00,
2013-12-23 01:01:00,33.3,33.3,30.07,East,91,0.0,0.0,100,0.00,,,0.00,WUHU216DAVISWMX,2013-12-23 06:01:00,
2013-12-23 01:06:00,33.2,33.2,30.06,East,91,0.0,0.0,100,0.00,,,0.00,WUHU216DAVISWMX,2013-12-23 06:06:00,
2013-12-23 01:11:00,33.2,33.2,30.07,East,91,0.0,0.0,100,0.00,,,0.00,WUHU216DAVISWMX,2013-12-23 06:11:00,
2013-12-23 01:16:00,33.1,33.1,30.06,East,91,0.0,0.0,100,0.00,,,0.00,WUHU216DAVISWMX,2013-12-23 06:16:00,
2013-12-23 01:21:00,33.2,33.2,30.07,East,91,0.0,0.0,100,0.00,,,0.00,WUHU216DAVISWMX,2013-12-23 06:21:00,
2013-12-23 01:26:00,33.1,33.1,30.08,East,91,0.0,0.0,100,0.00,,,0.00,WUHU216DAVISWMX,2013-12-23 06:26:00,
2013-12-23 01:31:00,33.0,33.0,30.09,East,91,0.0,0.0,100,0.00,,,0.00,WUHU216DAVISWMX,2013-12-23 06:31:00,
2013-12-23 01:36:00,33.0,33.0,30.09,East,91,0.0,0.0,100,0.00,,,0.00,WUHU216DAVISWMX,2013-12-23 06:36:00,
2013-12-23 01:41:00,33.0,33.0,30.09,East,91,0.0,0.0,100,0.00,,,0.00,WUHU216DAVISWMX,2013-12-23 06:41:00,
2013-12-23 01:46:00,32.8,32.8,30.09,East,91,0.0,0.0,100,0.00,,,0.00,WUHU216DAVISWMX,2013-12-23 06:46:00,
2013-12-23 01:51:00,32.8,32.8,30.09,East,91,0.0,0.0,100,0.00,,,0.00,WUHU216DAVISWMX,2013-12-23 06:51:00,
2013-12-23 01:56:00,33.0,33.0,30.09,East,91,0.0,0.0,100,0.00,,,0.00,WUHU216DAVISWMX,2013-12-23 06:56:00,
2013-12-23 02:01:00,32.9,32.9,30.10,East,91,0.0,0.0,100,0.00,,,0.00,WUHU216DAVISWMX,2013-12-23 07:01:00,
2013-12-23 02:06:00,33.0,33.0,30.10,East,91,0.0,0.0,100,0.00,,,0.00,WUHU216DAVISWMX,2013-12-23 07:06:00,
2013-12-23 02:11:00,33.0,33.0,30.10,East,91,0.0,0.0,100,0.00,,,0.00,WUHU216DAVISWMX,2013-12-23 07:11:00,
2013-12-23 02:16:00,33.0,33.0,30.11,East,91,0.0,0.0,100,0.00,,,0.00,WUHU216DAVISWMX,2013-12-23 07:16:00,
2013-12-23 02:21:00,32.8,32.8,30.11,East,91,0.0,0.0,100,0.00,,,0.00,WUHU216DAVISWMX,2013-12-23 07:21:00,
2013-12-23 02:26:00,32.8,32.8,30.11,East,91,0.0,0.0,100,0.00,,,0.00,WUHU216DAVISWMX,2013-12-23 07:26:00,
2013-12-23 02:31:00,32.9,32.9,30.10,East,91,0.0,0.0,100,0.00,,,0.00,WUHU216DAVISWMX,2013-12-23 07:31:00,
2013-12-23 02:36:00,32.7,32.7,30.11,East,91,0.0,0.0,100,0.00,,,0.00,WUHU216DAVISWMX,2013-12-23 07:36:00,
2013-12-23 02:41:00,32.6,32.6,30.10,East,91,0.0,0.0,100,0.00,,,0.00,WUHU216DAVISWMX,2013-12-23 07:41:00,
2013-12-23 02:46:00,32.6,32.6,30.10,East,91,0.0,0.0,100,0.00,,,0.00,WUHU216DAVISWMX,2013-12-23 07:46:00,
2013-12-23 02:51:00,32.5,32.5,30.10,East,91,0.0,0.0,100,0.00,,,0.00,WUHU216DAVISWMX,2013-12-23 07:51:00,
2013-12-23 02:56:00,32.7,32.7,30.12,East,91,0.0,0.0,100,0.00,,,0.00,WUHU216DAVISWMX,2013-12-23 07:56:00,
2013-12-23 03:01:00,32.7,32.7,30.11,East,91,0.0,0.0,100,0.00,,,0.00,WUHU216DAVISWMX,2013-12-23 08:01:00,
2013-12-23 03:06:00,32.7,32.7,30.12,East,91,0.0,0.0,100,0.00,,,0.00,WUHU216DAVISWMX,2013-12-23 08:06:00,
2013-12-23 03:11:00,32.9,32.9,30.10,East,91,0.0,0.0,100,0.00,,,0.00,WUHU216DAVISWMX,2013-12-23 08:11:00,
2013-12-23 03:16:00,32.7,32.7,30.10,East,91,0.0,0.0,100,0.00,,,0.00,WUHU216DAVISWMX,2013-12-23 08:16:00,
2013-12-23 03:21:00,32.8,32.8,30.10,East,91,0.0,0.0,100,0.00,,,0.00,WUHU216DAVISWMX,2013-12-23 08:21:00,
2013-12-23 03:26:00,32.8,32.8,30.09,East,91,0.0,0.0,100,0.00,,,0.00,WUHU216DAVISWMX,2013-12-23 08:26:00,
2013-12-23 03:31:00,32.7,32.7,30.10,East,91,0.0,0.0,100,0.00,,,0.00,WUHU216DAVISWMX,2013-12-23 08:31:00,
2013-12-23 03:36:00,32.7,32.7,30.11,East,91,0.0,0.0,100,0.00,,,0.00,WUHU216DAVISWMX,2013-12-23 08:36:00,
2013-12-23 03:41:00,32.7,32.7,30.11,East,91,0.0,0.0,100,0.00,,,0.00,WUHU216DAVISWMX,2013-12-23 08:41:00,
2013-12-23 03:46:00,32.7,32.7,30.11,East,91,0.0,0.0,100,0.00,,,0.00,WUHU216DAVISWMX,2013-12-23 08:46:00,
2013-12-23 03:51:00,32.8,32.8,30.12,East,91,0.0,0.0,100,0.00,,,0.00,WUHU216DAVISWMX,2013-12-23 08:51:00,
2013-12-23 03:56:00,32.7,32.7,30.12,East,91,0.0,0.0,100,0.00,,,0.00,WUHU216DAVISWMX,2013-12-23 08:56:00,
2013-12-23 04:01:00,32.6,32.6,30.11,East,91,0.0,0.0,100,0.00,,,0.00,WUHU216DAVISWMX,2013-12-23 09:01:00,
2013-12-23 04:06:00,32.6,32.6,30.11,East,91,0.0,0.0,100,0.00,,,0.00,WUHU216DAVISWMX,2013-12-23 09:06:00,
2013-12-23 04:11:00,32.5,32.5,30.11,East,91,0.0,0.0,100,0.00,,,0.00,WUHU216DAVISWMX,2013-12-23 09:11:00,
2013-12-23 04:16:00,32.5,32.5,30.12,East,91,0.0,0.0,100,0.00,,,0.00,WUHU216DAVISWMX,2013-12-23 09:16:00,
2013-12-23 04:21:00,32.4,32.4,30.12,East,91,0.0,0.0,100,0.00,,,0.00,WUHU216DAVISWMX,2013-12-23 09:21:00,
2013-12-23 04:26:00,32.5,32.5,30.12,East,91,0.0,0.0,100,0.00,,,0.00,WUHU216DAVISWMX,2013-12-23 09:26:00,
2013-12-23 04:31:00,32.5,32.5,30.12,East,91,0.0,0.0,100,0.00,,,0.00,WUHU216DAVISWMX,2013-12-23 09:31:00,
2013-12-23 04:36:00,32.5,32.5,30.12,East,91,0.0,0.0,100,0.00,,,0.00,WUHU216DAVISWMX,2013-12-23 09:36:00,
2013-12-23 04:41:00,32.5,32.5,30.12,East,91,0.0,0.0,100,0.00,,,0.00,WUHU216DAVISWMX,2013-12-23 09:41:00,
2013-12-23 04:46:00,32.5,32.5,30.12,East,91,0.0,0.0,100,0.00,,,0.00,WUHU216DAVISWMX,2013-12-23 09:46:00,
2013-12-23 04:51:00,32.5,32.5,30.12,East,91,0.0,0.0,100,0.00,,,0.00,WUHU216DAVISWMX,2013-12-23 09:51:00,
2013-12-23 04:56:00,32.4,32.4,30.12,East,91,0.0,0.0,100,0.00,,,0.00,WUHU216DAVISWMX,2013-12-23 09:56:00,
2013-12-23 05:01:00,32.5,32.5,30.12,East,91,0.0,0.0,100,0.00,,,0.00,WUHU216DAVISWMX,2013-12-23 10:01:00,
2013-12-23 05:06:00,32.5,32.5,30.11,East,91,0.0,0.0,100,0.00,,,0.00,WUHU216DAVISWMX,2013-12-23 10:06:00,
2013-12-23 05:11:00,32.6,32.6,30.12,East,91,0.0,0.0,100,0.00,,,0.00,WUHU216DAVISWMX,2013-12-23 10:11:00,
2013-12-23 05:16:00,32.5,32.5,30.11,East,91,0.0,0.0,100,0.00,,,0.00,WUHU216DAVISWMX,2013-12-23 10:16:00,
2013-12-23 05:21:00,32.5,32.5,30.12,East,91,0.0,0.0,100,0.00,,,0.00,WUHU216DAVISWMX,2013-12-23 10:21:00,
2013-12-23 05:26:00,32.5,32.5,30.12,East,91,0.0,0.0,100,0.00,,,0.00,WUHU216DAVISWMX,2013-12-23 10:26:00,
2013-12-23 05:31:00,32.5,32.5,30.12,East,91,0.0,0.0,100,0.00,,,0.00,WUHU216DAVISWMX,2013-12-23 10:31:00,
2013-12-23 05:36:00,32.5,32.5,30.12,East,91,0.0,0.0,100,0.00,,,0.00,WUHU216DAVISWMX,2013-12-23 10:36:00,
2013-12-23 05:41:00,32.6,32.6,30.11,East,91,0.0,0.0,100,0.00,,,0.00,WUHU216DAVISWMX,2013-12-23 10:41:00,
2013-12-23 05:46:00,32.6,32.6,30.12,East,91,0.0,0.0,100,0.00,,,0.00,WUHU216DAVISWMX,2013-12-23 10:46:00,
2013-12-23 05:51:00,32.5,32.5,30.12,East,91,0.0,0.0,100,0.00,,,0.00,WUHU216DAVISWMX,2013-12-23 10:51:00,
2013-12-23 05:56:00,32.6,32.6,30.13,East,91,0.0,0.0,100,0.00,,,0.00,WUHU216DAVISWMX,2013-12-23 10:56:00,
2013-12-23 06:01:00,32.7,32.7,30.12,East,91,0.0,0.0,100,0.00,,,0.00,WUHU216DAVISWMX,2013-12-23 11:01:00,
2013-12-23 06:06:00,32.6,32.6,30.13,East,91,0.0,0.0,100,0.00,,,0.00,WUHU216DAVISWMX,2013-12-23 11:06:00,
2013-12-23 06:11:00,32.5,32.5,30.13,East,91,0.0,0.0,100,0.00,,,0.00,WUHU216DAVISWMX,2013-12-23 11:11:00,
2013-12-23 06:16:00,32.6,32.6,30.13,East,91,0.0,0.0,100,0.00,,,0.00,WUHU216DAVISWMX,2013-12-23 11:16:00,
2013-12-23 06:21:00,32.5,32.5,30.12,East,91,0.0,0.0,100,0.00,,,0.00,WUHU216DAVISWMX,2013-12-23 11:21:00,
2013-12-23 06:26:00,32.6,32.6,30.11,East,91,0.0,0.0,100,0.00,,,0.00,WUHU216DAVISWMX,2013-12-23 11:26:00,
2013-12-23 06:31:00,32.7,32.7,30.12,East,91,0.0,0.0,100,0.00,,,0.00,WUHU216DAVISWMX,2013-12-23 11:31:00,
2013-12-23 06:36:00,32.7,32.7,30.11,East,91,0.0,0.0,100,0.00,,,0.00,WUHU216DAVISWMX,2013-12-23 11:36:00,
2013-12-23 06:41:00,32.7,32.7,30.10,East,91,0.0,0.0,100,0.00,,,0.00,WUHU216DAVISWMX,2013-12-23 11:41:00,
2013-12-23 06:46:00,32.6,32.6,30.11,East,91,0.0,0.0,100,0.00,,,0.00,WUHU216DAVISWMX,2013-12-23 11:46:00,
2013-12-23 06:51:00,32.5,32.5,30.12,East,91,0.0,0.0,100,0.00,,,0.00,WUHU216DAVISWMX,2013-12-23 11:51:00,
2013-12-23 06:56:00,32.6,32.6,30.12,East,91,0.0,0.0,100,0.00,,,0.00,WUHU216DAVISWMX,2013-12-23 11:56:00,
2013-12-23 07:01:00,32.6,32.6,30.12,East,91,0.0,0.0,100,0.00,,,0.00,WUHU216DAVISWMX,2013-12-23 12:01:00,
2013-12-23 07:06:00,32.6,32.6,30.11,East,91,0.0,0.0,100,0.00,,,0.00,WUHU216DAVISWMX,2013-12-23 12:06:00,
2013-12-23 07:11:00,32.6,32.6,30.10,East,91,0.0,0.0,100,0.00,,,0.00,WUHU216DAVISWMX,2013-12-23 12:11:00,
2013-12-23 07:16:00,32.6,32.6,30.09,East,91,0.0,0.0,100,0.00,,,0.00,WUHU216DAVISWMX,2013-12-23 12:16:00,
2013-12-23 07:21:00,32.5,32.5,30.10,East,91,0.0,0.0,100,0.00,,,0.00,WUHU216DAVISWMX,2013-12-23 12:21:00,
2013-12-23 07:26:00,32.4,32.4,30.12,East,91,0.0,0.0,100,0.00,,,0.00,WUHU216DAVISWMX,2013-12-23 12:26:00,
2013-12-23 07:31:00,32.4,32.4,30.12,East,91,0.0,0.0,100,0.00,,,0.00,WUHU216DAVISWMX,2013-12-23 12:31:00,
2013-12-23 07:36:00,32.4,32.4,30.12,East,91,0.0,0.0,100,0.00,,,0.00,WUHU216DAVISWMX,2013-12-23 12:36:00,
2013-12-23 07:41:00,32.3,32.3,30.12,East,91,0.0,0.0,100,0.00,,,0.00,WUHU216DAVISWMX,2013-12-23 12:41:00,
2013-12-23 07:46:00,32.3,32.3,30.12,East,91,0.0,0.0,100,0.00,,,0.00,WUHU216DAVISWMX,2013-12-23 12:46:00,
2013-12-23 07:51:00,32.3,32.3,30.13,East,91,0.0,0.0,100,0.00,,,0.00,WUHU216DAVISWMX,2013-12-23 12:51:00,
2013-12-23 07:56:00,32.4,32.4,30.14,East,91,0.0,0.0,100,0.00,,,0.00,WUHU216DAVISWMX,2013-12-23 12:56:00,
2013-12-23 08:01:00,32.5,32.5,30.13,East,91,0.0,0.0,100,0.00,,,0.00,WUHU216DAVISWMX,2013-12-23 13:01:00,
2013-12-23 08:06:00,32.6,32.6,30.11,East,91,0.0,0.0,100,0.00,,,0.00,WUHU216DAVISWMX,2013-12-23 13:06:00,
2013-12-23 08:11:00,32.5,32.5,30.11,East,91,0.0,0.0,100,0.01,,,0.01,WUHU216DAVISWMX,2013-12-23 13:11:00,
2013-12-23 08:16:00,32.6,32.6,30.10,East,91,0.0,0.0,100,0.02,,,0.02,WUHU216DAVISWMX,2013-12-23 13:16:00,
2013-12-23 08:21:00,32.6,32.6,30.11,East,91,0.0,0.0,100,0.02,,,0.02,WUHU216DAVISWMX,2013-12-23 13:21:00,
2013-12-23 08:26:00,32.5,32.5,30.11,East,91,0.0,0.0,100,0.02,,,0.02,WUHU216DAVISWMX,2013-12-23 13:26:00,
2013-12-23 08:31:00,32.6,32.6,30.10,East,91,0.0,0.0,100,0.02,,,0.02,WUHU216DAVISWMX,2013-12-23 13:31:00,
2013-12-23 08:36:00,32.5,32.5,30.11,East,91,0.0,0.0,100,0.02,,,0.02,WUHU216DAVISWMX,2013-12-23 13:36:00,
2013-12-23 08:41:00,32.6,32.6,30.12,East,91,0.0,0.0,100,0.03,,,0.03,WUHU216DAVISWMX,2013-12-23 13:41:00,
2013-12-23 08:46:00,32.7,32.7,30.12,East,91,0.0,0.0,100,0.04,,,0.04,WUHU216DAVISWMX,2013-12-23 13:46:00,
2013-12-23 08:51:00,32.8,32.8,30.13,East,91,0.0,0.0,100,0.04,,,0.04,WUHU216DAVISWMX,2013-12-23 13:51:00,
2013-12-23 08:56:00,32.7,32.7,30.13,East,91,0.0,0.0,100,0.04,,,0.04,WUHU216DAVISWMX,2013-12-23 13:56:00,
2013-12-23 09:01:00,32.9,32.9,30.14,East,91,0.0,0.0,100,0.05,,,0.05,WUHU216DAVISWMX,2013-12-23 14:01:00,
2013-12-23 09:06:00,33.0,33.0,30.13,East,91,0.0,0.0,100,0.06,,,0.06,WUHU216DAVISWMX,2013-12-23 14:06:00,
2013-12-23 09:11:00,32.8,32.8,30.12,East,91,0.0,0.0,100,0.06,,,0.07,WUHU216DAVISWMX,2013-12-23 14:11:00,
2013-12-23 09:16:00,33.0,33.0,30.11,East,91,0.0,0.0,100,0.06,,,0.08,WUHU216DAVISWMX,2013-12-23 14:16:00,
2013-12-23 09:22:00,32.8,32.8,30.10,East,90,0.0,0.0,100,0.06,,,0.08,WUHU216DAVISWMX,2013-12-23 14:22:00,
2013-12-23 09:27:00,33.1,33.1,30.11,East,91,0.0,0.0,100,0.06,,,0.08,WUHU216DAVISWMX,2013-12-23 14:27:00,
2013-12-23 09:32:00,33.1,33.1,30.12,East,90,0.0,0.0,100,0.06,,,0.08,WUHU216DAVISWMX,2013-12-23 14:32:00,
2013-12-23 09:37:00,33.2,33.2,30.12,East,91,0.0,0.0,100,0.06,,,0.08,WUHU216DAVISWMX,2013-12-23 14:37:00,
2013-12-23 09:42:00,33.2,33.2,30.12,East,90,0.0,0.0,100,0.05,,,0.08,WUHU216DAVISWMX,2013-12-23 14:42:00,
2013-12-23 09:47:00,33.1,33.1,30.12,East,90,0.0,0.0,100,0.04,,,0.08,WUHU216DAVISWMX,2013-12-23 14:47:00,
2013-12-23 09:52:00,33.0,33.0,30.11,East,86,0.0,0.0,100,0.04,,,0.08,WUHU216DAVISWMX,2013-12-23 14:52:00,
2013-12-23 09:57:00,32.9,32.9,30.12,North,0,0.0,0.0,100,0.04,,,0.08,WUHU216DAVISWMX,2013-12-23 14:57:00,
2013-12-23 10:02:00,32.8,32.8,30.11,North,0,0.0,0.0,100,0.04,,,0.09,WUHU216DAVISWMX,2013-12-23 15:02:00,
2013-12-23 10:07:00,32.9,32.9,30.12,North,0,0.0,0.0,100,0.03,,,0.09,WUHU216DAVISWMX,2013-12-23 15:07:00,
2013-12-23 10:12:00,32.9,32.9,30.12,North,0,0.0,0.0,100,0.03,,,0.10,WUHU216DAVISWMX,2013-12-23 15:12:00,
2013-12-23 10:17:00,33.1,33.1,30.12,North,0,0.0,0.0,100,0.02,,,0.10,WUHU216DAVISWMX,2013-12-23 15:17:00,
2013-12-23 10:22:00,33.2,33.2,30.11,North,0,0.0,0.0,100,0.02,,,0.10,WUHU216DAVISWMX,2013-12-23 15:22:00,
2013-12-23 10:27:00,33.1,33.1,30.11,North,0,0.0,0.0,100,0.02,,,0.10,WUHU216DAVISWMX,2013-12-23 15:27:00,
2013-12-23 10:32:00,33.1,33.1,30.12,North,0,0.0,0.0,100,0.02,,,0.10,WUHU216DAVISWMX,2013-12-23 15:32:00,
2013-12-23 10:37:00,33.2,33.2,30.11,North,0,0.0,0.0,100,0.02,,,0.10,WUHU216DAVISWMX,2013-12-23 15:37:00,
2013-12-23 10:42:00,33.2,33.2,30.10,North,0,0.0,0.0,100,0.03,,,0.11,WUHU216DAVISWMX,2013-12-23 15:42:00,
2013-12-23 10:47:00,33.3,33.3,30.10,North,0,0.0,0.0,100,0.04,,,0.12,WUHU216DAVISWMX,2013-12-23 15:47:00,
2013-12-23 10:52:00,33.2,33.2,30.10,North,0,0.0,0.0,100,0.04,,,0.12,WUHU216DAVISWMX,2013-12-23 15:52:00,
2013-12-23 10:57:00,33.2,33.2,30.09,North,0,0.0,0.0,100,0.05,,,0.13,WUHU216DAVISWMX,2013-12-23 15:57:00,
2013-12-23 11:02:00,33.3,33.3,30.09,North,0,0.0,0.0,100,0.04,,,0.13,WUHU216DAVISWMX,2013-12-23 16:02:00,
2013-12-23 11:07:00,33.3,33.3,30.09,North,0,0.0,0.0,100,0.04,,,0.13,WUHU216DAVISWMX,2013-12-23 16:07:00,
2013-12-23 11:12:00,33.4,33.4,30.08,North,0,0.0,0.0,100,0.04,,,0.14,WUHU216DAVISWMX,2013-12-23 16:12:00,
2013-12-23 11:17:00,33.5,33.5,30.08,North,0,0.0,0.0,100,0.04,,,0.14,WUHU216DAVISWMX,2013-12-23 16:17:00,
2013-12-23 11:22:00,33.5,33.5,30.07,North,0,0.0,0.0,100,0.04,,,0.14,WUHU216DAVISWMX,2013-12-23 16:22:00,
2013-12-23 11:27:00,33.5,33.5,30.07,North,0,0.0,0.0,100,0.04,,,0.14,WUHU216DAVISWMX,2013-12-23 16:27:00,
2013-12-23 11:32:00,33.5,33.5,30.06,ENE,60,0.0,0.0,100,0.04,,,0.14,WUHU216DAVISWMX,2013-12-23 16:32:00,
2013-12-23 11:37:00,33.5,33.5,30.07,North,0,0.0,0.0,100,0.04,,,0.14,WUHU216DAVISWMX,2013-12-23 16:37:00,
2013-12-23 11:42:00,33.5,33.5,30.07,NE,39,0.0,0.0,100,0.03,,,0.14,WUHU216DAVISWMX,2013-12-23 16:42:00,
2013-12-23 11:47:00,33.5,33.5,30.07,NE,39,0.0,0.0,100,0.02,,,0.14,WUHU216DAVISWMX,2013-12-23 16:47:00,
2013-12-23 11:52:00,33.5,33.5,30.07,NE,38,0.0,0.0,100,0.02,,,0.14,WUHU216DAVISWMX,2013-12-23 16:52:00,
2013-12-23 11:57:00,33.3,33.3,30.07,North,1,0.0,0.0,100,0.01,,,0.14,WUHU216DAVISWMX,2013-12-23 16:57:00,
2013-12-23 12:02:00,33.3,33.3,30.07,North,1,0.0,0.0,100,0.01,,,0.14,WUHU216DAVISWMX,2013-12-23 17:02:00,
2013-12-23 12:07:00,33.3,33.3,30.08,North,1,0.0,0.0,100,0.02,,,0.15,WUHU216DAVISWMX,2013-12-23 17:07:00,
2013-12-23 12:12:00,33.3,33.3,30.07,North,1,0.0,0.0,100,0.01,,,0.15,WUHU216DAVISWMX,2013-12-23 17:12:00,
2013-12-23 12:17:00,33.3,33.3,30.05,North,1,0.0,0.0,100,0.02,,,0.16,WUHU216DAVISWMX,2013-12-23 17:17:00,
2013-12-23 12:22:00,33.3,33.3,30.06,South,187,0.0,0.0,100,0.02,,,0.16,WUHU216DAVISWMX,2013-12-23 17:22:00,
2013-12-23 12:27:00,33.3,33.3,30.07,South,188,0.0,0.0,100,0.02,,,0.16,WUHU216DAVISWMX,2013-12-23 17:27:00,
2013-12-23 12:32:00,33.3,33.3,30.06,South,188,0.0,0.0,100,0.02,,,0.16,WUHU216DAVISWMX,2013-12-23 17:32:00,
2013-12-23 12:37:00,33.4,33.4,30.07,South,188,0.0,0.0,100,0.02,,,0.16,WUHU216DAVISWMX,2013-12-23 17:37:00,
2013-12-23 12:42:00,33.4,33.4,30.05,South,187,0.0,0.0,100,0.03,,,0.17,WUHU216DAVISWMX,2013-12-23 17:42:00,
2013-12-23 12:47:00,33.5,33.5,30.05,South,187,0.0,0.0,100,0.04,,,0.18,WUHU216DAVISWMX,2013-12-23 17:47:00,
2013-12-23 12:52:00,33.5,33.5,30.05,South,187,0.0,0.0,100,0.04,,,0.18,WUHU216DAVISWMX,2013-12-23 17:52:00,
2013-12-23 12:57:00,33.7,33.7,30.06,South,187,0.0,0.0,100,0.05,,,0.19,WUHU216DAVISWMX,2013-12-23 17:57:00,
2013-12-23 13:02:00,33.6,33.6,30.06,South,187,0.0,0.0,100,0.05,,,0.19,WUHU216DAVISWMX,2013-12-23 18:02:00,
2013-12-23 13:07:00,33.7,33.7,30.03,South,187,0.0,0.0,100,0.05,,,0.20,WUHU216DAVISWMX,2013-12-23 18:07:00,
2013-12-23 13:12:00,33.7,33.7,30.04,South,187,0.0,0.0,100,0.05,,,0.20,WUHU216DAVISWMX,2013-12-23 18:12:00,
2013-12-23 13:17:00,33.7,33.7,30.06,South,187,0.0,0.0,100,0.04,,,0.20,WUHU216DAVISWMX,2013-12-23 18:17:00,
2013-12-23 13:22:00,33.7,33.7,30.05,South,187,0.0,0.0,100,0.04,,,0.20,WUHU216DAVISWMX,2013-12-23 18:22:00,
2013-12-23 13:27:00,33.7,33.7,30.04,South,187,0.0,0.0,100,0.04,,,0.20,WUHU216DAVISWMX,2013-12-23 18:27:00,
2013-12-23 13:32:00,33.8,33.8,30.05,South,187,0.0,0.0,100,0.04,,,0.20,WUHU216DAVISWMX,2013-12-23 18:32:00,
2013-12-23 13:37:00,33.8,33.8,30.05,South,187,0.0,0.0,100,0.04,,,0.20,WUHU216DAVISWMX,2013-12-23 18:37:00,
2013-12-23 13:42:00,33.7,33.7,30.05,SW,217,0.0,0.0,100,0.03,,,0.20,WUHU216DAVISWMX,2013-12-23 18:42:00,
2013-12-23 13:47:00,33.7,33.7,30.05,SW,217,0.0,0.0,100,0.02,,,0.20,WUHU216DAVISWMX,2013-12-23 18:47:00,
2013-12-23 13:52:00,33.7,33.7,30.05,SW,218,0.0,0.0,100,0.02,,,0.20,WUHU216DAVISWMX,2013-12-23 18:52:00,
2013-12-23 13:57:00,33.8,33.8,30.04,SW,218,0.0,0.0,100,0.01,,,0.20,WUHU216DAVISWMX,2013-12-23 18:57:00,
2013-12-23 14:02:00,33.9,33.9,30.04,SW,217,0.0,0.0,100,0.02,,,0.21,WUHU216DAVISWMX,2013-12-23 19:02:00,
2013-12-23 14:07:00,33.9,33.9,30.03,SW,217,0.0,0.0,100,0.01,,,0.21,WUHU216DAVISWMX,2013-12-23 19:07:00,
2013-12-23 14:13:00,33.9,33.9,30.02,SW,218,0.0,0.0,100,0.01,,,0.21,WUHU216DAVISWMX,2013-12-23 19:13:00,
2013-12-23 14:18:00,34.0,34.0,30.02,SW,217,0.0,0.0,100,0.01,,,0.21,WUHU216DAVISWMX,2013-12-23 19:18:00,
2013-12-23 14:24:00,34.0,34.0,30.02,SW,217,0.0,0.0,100,0.01,,,0.21,WUHU216DAVISWMX,2013-12-23 19:24:00,
2013-12-23 14:29:00,34.0,34.0,30.02,SW,218,0.0,0.0,100,0.01,,,0.21,WUHU216DAVISWMX,2013-12-23 19:29:00,
2013-12-23 14:34:00,34.1,34.1,30.04,SW,217,0.0,0.0,100,0.01,,,0.21,WUHU216DAVISWMX,2013-12-23 19:34:00,
2013-12-23 14:50:00,34.0,34.0,30.04,SW,217,0.0,0.0,100,0.01,,,0.21,WUHU216DAVISWMX,2013-12-23 19:50:00,
2013-12-23 14:56:00,34.1,34.1,30.03,SW,217,0.0,0.0,100,0.03,,,0.23,WUHU216DAVISWMX,2013-12-23 19:56:00,
2013-12-23 15:01:00,34.2,34.2,30.01,SW,217,0.0,0.0,100,0.03,,,0.24,WUHU216DAVISWMX,2013-12-23 20:01:00,
2013-12-23 15:06:00,34.2,34.2,30.03,SW,216,0.0,0.0,100,0.04,,,0.25,WUHU216DAVISWMX,2013-12-23 20:06:00,
2013-12-23 15:11:00,34.1,34.1,30.03,SW,217,0.0,0.0,100,0.05,,,0.26,WUHU216DAVISWMX,2013-12-23 20:11:00,
2013-12-23 15:16:00,34.1,34.1,30.04,SW,217,0.0,0.0,100,0.05,,,0.26,WUHU216DAVISWMX,2013-12-23 20:16:00,
2013-12-23 15:21:00,34.0,34.0,30.06,SW,216,0.0,0.0,100,0.07,,,0.28,WUHU216DAVISWMX,2013-12-23 20:21:00,
2013-12-23 15:26:00,34.1,34.1,30.05,SW,217,0.0,0.0,100,0.09,,,0.30,WUHU216DAVISWMX,2013-12-23 20:26:00,
2013-12-23 15:31:00,34.1,34.1,30.05,SW,217,0.0,0.0,100,0.10,,,0.31,WUHU216DAVISWMX,2013-12-23 20:31:00,
2013-12-23 15:36:00,34.1,34.1,30.04,SW,216,0.0,0.0,100,0.11,,,0.32,WUHU216DAVISWMX,2013-12-23 20:36:00,
2013-12-23 15:41:00,34.1,34.1,30.05,SW,216,0.0,0.0,100,0.11,,,0.32,WUHU216DAVISWMX,2013-12-23 20:41:00,
2013-12-23 15:46:00,34.1,34.1,30.04,SW,216,0.0,0.0,100,0.11,,,0.33,WUHU216DAVISWMX,2013-12-23 20:46:00,
2013-12-23 15:51:00,34.1,34.1,30.04,SW,216,0.0,0.0,100,0.12,,,0.34,WUHU216DAVISWMX,2013-12-23 20:51:00,
2013-12-23 15:56:00,34.2,34.2,30.04,SW,216,0.0,0.0,100,0.11,,,0.34,WUHU216DAVISWMX,2013-12-23 20:56:00,
2013-12-23 16:01:00,34.1,34.1,30.03,SW,217,0.0,0.0,100,0.10,,,0.34,WUHU216DAVISWMX,2013-12-23 21:01:00,
2013-12-23 16:06:00,34.0,34.0,30.04,SW,217,0.0,0.0,100,0.09,,,0.34,WUHU216DAVISWMX,2013-12-23 21:06:00,
2013-12-23 16:11:00,34.0,34.0,30.04,SW,217,0.0,0.0,100,0.08,,,0.34,WUHU216DAVISWMX,2013-12-23 21:11:00,
2013-12-23 16:17:00,34.0,34.0,30.05,SW,217,0.0,0.0,100,0.08,,,0.34,WUHU216DAVISWMX,2013-12-23 21:17:00,
2013-12-23 16:22:00,34.0,34.0,30.04,SW,217,0.0,0.0,100,0.05,,,0.34,WUHU216DAVISWMX,2013-12-23 21:22:00,
2013-12-23 16:28:00,34.0,34.0,30.04,SW,217,0.0,0.0,100,0.04,,,0.34,WUHU216DAVISWMX,2013-12-23 21:28:00,
2013-12-23 16:33:00,34.0,34.0,30.04,SW,217,0.0,0.0,100,0.02,,,0.34,WUHU216DAVISWMX,2013-12-23 21:33:00,
2013-12-23 16:48:00,34.0,34.0,30.04,SW,217,0.0,0.0,100,0.02,,,0.34,WUHU216DAVISWMX,2013-12-23 21:48:00,
2013-12-23 16:54:00,34.0,34.0,30.05,SW,217,0.0,0.0,100,0.00,,,0.34,WUHU216DAVISWMX,2013-12-23 21:54:00,
2013-12-23 17:05:00,34.0,34.0,30.04,SW,216,0.0,0.0,100,0.00,,,0.34,WUHU216DAVISWMX,2013-12-23 22:05:00,
2013-12-23 17:10:00,34.0,34.0,30.05,SW,217,0.0,0.0,100,0.01,,,0.35,WUHU216DAVISWMX,2013-12-23 22:10:00,
2013-12-23 17:15:00,33.9,33.9,30.05,SW,217,0.0,0.0,100,0.01,,,0.35,WUHU216DAVISWMX,2013-12-23 22:15:00,
2013-12-23 17:20:00,34.0,34.0,30.07,SW,217,0.0,0.0,100,0.01,,,0.35,WUHU216DAVISWMX,2013-12-23 22:20:00,
2013-12-23 17:25:00,34.0,34.0,30.04,SW,217,0.0,0.0,100,0.02,,,0.36,WUHU216DAVISWMX,2013-12-23 22:25:00,
2013-12-23 17:31:00,34.0,34.0,30.05,SW,216,0.0,0.0,100,0.02,,,0.36,WUHU216DAVISWMX,2013-12-23 22:31:00,
2013-12-23 17:36:00,33.9,33.9,30.06,SW,217,0.0,0.0,100,0.02,,,0.36,WUHU216DAVISWMX,2013-12-23 22:36:00,
2013-12-23 17:42:00,33.9,33.9,30.05,SW,217,0.0,0.0,100,0.02,,,0.36,WUHU216DAVISWMX,2013-12-23 22:42:00,
2013-12-23 17:47:00,33.9,33.9,30.06,SW,216,0.0,0.0,100,0.03,,,0.37,WUHU216DAVISWMX,2013-12-23 22:47:00,
2013-12-23 17:52:00,33.9,33.9,30.07,SW,217,0.0,0.0,100,0.04,,,0.38,WUHU216DAVISWMX,2013-12-23 22:52:00,
2013-12-23 17:58:00,33.9,33.9,30.06,SW,217,0.0,0.0,100,0.04,,,0.38,WUHU216DAVISWMX,2013-12-23 22:58:00,
2013-12-23 18:03:00,33.9,33.9,30.07,SW,217,0.0,0.0,100,0.03,,,0.38,WUHU216DAVISWMX,2013-12-23 23:03:00,
2013-12-23 18:09:00,33.9,33.9,30.06,SW,216,0.0,0.0,100,0.03,,,0.38,WUHU216DAVISWMX,2013-12-23 23:09:00,
2013-12-23 18:14:00,33.9,33.9,30.07,SW,217,0.0,0.0,100,0.03,,,0.38,WUHU216DAVISWMX,2013-12-23 23:14:00,
2013-12-23 18:19:00,33.8,33.8,30.07,SW,216,0.0,0.0,100,0.03,,,0.38,WUHU216DAVISWMX,2013-12-23 23:19:00,
2013-12-23 18:30:00,33.9,33.9,30.07,SW,216,0.0,0.0,100,0.03,,,0.39,WUHU216DAVISWMX,2013-12-23 23:30:00,
2013-12-23 18:36:00,34.0,34.0,30.08,SW,216,0.0,0.0,100,0.03,,,0.39,WUHU216DAVISWMX,2013-12-23 23:36:00,
2013-12-23 18:41:00,33.9,33.9,30.08,SW,217,0.0,0.0,100,0.03,,,0.39,WUHU216DAVISWMX,2013-12-23 23:41:00,
2013-12-23 18:46:00,33.9,33.9,30.08,SW,217,0.0,0.0,100,0.02,,,0.39,WUHU216DAVISWMX,2013-12-23 23:46:00,
2013-12-23 18:51:00,34.0,34.0,30.08,SW,217,0.0,0.0,100,0.02,,,0.40,WUHU216DAVISWMX,2013-12-23 23:51:00,
2013-12-23 18:56:00,34.0,34.0,30.09,SW,216,0.0,0.0,100,0.02,,,0.40,WUHU216DAVISWMX,2013-12-23 23:56:00,
2013-12-23 19:01:00,34.0,34.0,30.08,SW,216,0.0,0.0,100,0.02,,,0.40,WUHU216DAVISWMX,2013-12-24 00:01:00,
2013-12-23 19:07:00,33.9,33.9,30.09,NW,309,0.0,0.0,100,0.02,,,0.40,WUHU216DAVISWMX,2013-12-24 00:07:00,
2013-12-23 19:12:00,33.9,33.9,30.09,NW,308,0.0,0.0,100,0.03,,,0.41,WUHU216DAVISWMX,2013-12-24 00:12:00,
2013-12-23 19:18:00,34.0,34.0,30.09,NW,308,0.0,0.0,100,0.03,,,0.41,WUHU216DAVISWMX,2013-12-24 00:18:00,
2013-12-23 19:23:00,34.1,34.1,30.09,NW,308,0.0,0.0,100,0.02,,,0.41,WUHU216DAVISWMX,2013-12-24 00:23:00,
2013-12-23 19:29:00,34.1,34.1,30.09,NW,308,0.0,0.0,100,0.02,,,0.41,WUHU216DAVISWMX,2013-12-24 00:29:00,
2013-12-23 19:34:00,34.1,34.1,30.09,NW,308,0.0,0.0,100,0.02,,,0.41,WUHU216DAVISWMX,2013-12-24 00:34:00,
2013-12-23 19:40:00,34.0,34.0,30.10,NW,308,0.0,0.0,100,0.03,,,0.42,WUHU216DAVISWMX,2013-12-24 00:40:00,
2013-12-23 19:45:00,34.0,34.0,30.10,NW,308,0.0,0.0,100,0.03,,,0.42,WUHU216DAVISWMX,2013-12-24 00:45:00,
2013-12-23 19:51:00,34.0,34.0,30.10,NW,308,0.0,0.0,100,0.02,,,0.42,WUHU216DAVISWMX,2013-12-24 00:51:00,
2013-12-23 19:56:00,34.0,34.0,30.11,NW,308,0.0,0.0,100,0.02,,,0.42,WUHU216DAVISWMX,2013-12-24 00:56:00,
2013-12-23 20:02:00,34.0,34.0,30.11,NW,308,0.0,0.0,100,0.02,,,0.42,WUHU216DAVISWMX,2013-12-24 01:02:00,
2013-12-23 20:08:00,34.0,34.0,30.10,NW,308,0.0,0.0,100,0.02,,,0.42,WUHU216DAVISWMX,2013-12-24 01:08:00,
2013-12-23 20:13:00,34.1,34.1,30.10,NW,308,0.0,0.0,100,0.01,,,0.42,WUHU216DAVISWMX,2013-12-24 01:13:00,
2013-12-23 20:18:00,34.1,34.1,30.10,NW,308,0.0,0.0,100,0.01,,,0.42,WUHU216DAVISWMX,2013-12-24 01:18:00,
2013-12-23 20:24:00,34.1,34.1,30.10,NW,308,0.0,0.0,100,0.01,,,0.42,WUHU216DAVISWMX,2013-12-24 01:24:00,
2013-12-23 20:29:00,34.1,34.1,30.10,NW,308,0.0,0.0,100,0.01,,,0.42,WUHU216DAVISWMX,2013-12-24 01:29:00,
2013-12-23 20:35:00,34.1,34.1,30.09,NW,308,0.0,0.0,100,0.01,,,0.42,WUHU216DAVISWMX,2013-12-24 01:35:00,
2013-12-23 20:40:00,33.9,33.9,30.11,NW,308,0.0,0.0,100,0.00,,,0.42,WUHU216DAVISWMX,2013-12-24 01:40:00,
2013-12-23 20:46:00,33.9,33.9,30.12,NW,308,0.0,0.0,100,0.00,,,0.42,WUHU216DAVISWMX,2013-12-24 01:46:00,
2013-12-23 20:57:00,33.9,33.9,30.13,NW,308,0.0,0.0,100,0.00,,,0.42,WUHU216DAVISWMX,2013-12-24 01:57:00,
2013-12-23 21:02:00,33.9,33.9,30.12,NW,308,0.0,0.0,100,0.00,,,0.42,WUHU216DAVISWMX,2013-12-24 02:02:00,
2013-12-23 21:07:00,33.9,33.9,30.12,NW,308,0.0,0.0,100,0.00,,,0.42,WUHU216DAVISWMX,2013-12-24 02:07:00,
2013-12-23 21:12:00,33.9,33.9,30.11,NW,308,0.0,0.0,100,0.00,,,0.42,WUHU216DAVISWMX,2013-12-24 02:12:00,
2013-12-23 21:17:00,33.9,33.9,30.11,NW,308,0.0,0.0,100,0.00,,,0.42,WUHU216DAVISWMX,2013-12-24 02:17:00,
2013-12-23 21:22:00,33.8,33.8,30.11,NW,309,0.0,0.0,100,0.00,,,0.42,WUHU216DAVISWMX,2013-12-24 02:22:00,
2013-12-23 21:27:00,33.9,33.9,30.10,NW,308,0.0,0.0,100,0.00,,,0.42,WUHU216DAVISWMX,2013-12-24 02:27:00,
2013-12-23 21:32:00,33.8,33.8,30.10,NW,308,0.0,0.0,100,0.00,,,0.42,WUHU216DAVISWMX,2013-12-24 02:32:00,
2013-12-23 21:37:00,33.7,33.7,30.10,NW,308,0.0,0.0,100,0.00,,,0.42,WUHU216DAVISWMX,2013-12-24 02:37:00,
2013-12-23 21:42:00,33.7,33.7,30.10,NW,308,0.0,0.0,100,0.00,,,0.42,WUHU216DAVISWMX,2013-12-24 02:42:00,
2013-12-23 21:47:00,33.8,33.8,30.10,NW,308,0.0,0.0,100,0.00,,,0.42,WUHU216DAVISWMX,2013-12-24 02:47:00,
2013-12-23 21:52:00,33.9,33.9,30.10,NW,316,0.0,0.0,100,0.00,,,0.42,WUHU216DAVISWMX,2013-12-24 02:52:00,
2013-12-23 21:57:00,34.1,34.1,30.11,NW,316,0.0,0.0,100,0.00,,,0.42,WUHU216DAVISWMX,2013-12-24 02:57:00,
2013-12-23 22:02:00,34.3,34.3,30.12,NW,316,0.0,0.0,100,0.00,,,0.42,WUHU216DAVISWMX,2013-12-24 03:02:00,
2013-12-23 22:07:00,34.3,34.3,30.13,NW,316,0.0,0.0,100,0.00,,,0.42,WUHU216DAVISWMX,2013-12-24 03:07:00,
2013-12-23 22:12:00,34.4,34.4,30.14,NW,316,0.0,0.0,100,0.00,,,0.42,WUHU216DAVISWMX,2013-12-24 03:12:00,
2013-12-23 22:17:00,34.5,34.5,30.13,NW,316,0.0,0.0,100,0.00,,,0.42,WUHU216DAVISWMX,2013-12-24 03:17:00,
2013-12-23 22:22:00,34.5,34.5,30.14,NW,316,0.0,0.0,100,0.00,,,0.42,WUHU216DAVISWMX,2013-12-24 03:22:00,
2013-12-23 22:27:00,34.7,34.7,30.13,NW,316,0.0,0.0,100,0.00,,,0.42,WUHU216DAVISWMX,2013-12-24 03:27:00,
2013-12-23 22:32:00,34.7,34.7,30.13,NW,316,0.0,0.0,100,0.00,,,0.42,WUHU216DAVISWMX,2013-12-24 03:32:00,
2013-12-23 22:37:00,34.8,34.8,30.13,NW,316,0.0,0.0,100,0.00,,,0.42,WUHU216DAVISWMX,2013-12-24 03:37:00,
2013-12-23 22:42:00,34.8,34.8,30.13,NW,316,0.0,0.0,100,0.00,,,0.42,WUHU216DAVISWMX,2013-12-24 03:42:00,
2013-12-23 22:47:00,34.9,34.9,30.13,NW,316,0.0,0.0,100,0.00,,,0.42,WUHU216DAVISWMX,2013-12-24 03:47:00,
2013-12-23 22:52:00,34.9,34.9,30.13,NW,316,0.0,0.0,100,0.00,,,0.42,WUHU216DAVISWMX,2013-12-24 03:52:00,
2013-12-23 22:57:00,34.9,34.9,30.14,NW,316,0.0,0.0,100,0.00,,,0.42,WUHU216DAVISWMX,2013-12-24 03:57:00,
2013-12-23 23:02:00,35.0,35.0,30.13,NW,316,0.0,0.0,100,0.00,,,0.42,WUHU216DAVISWMX,2013-12-24 04:02:00,
2013-12-23 23:08:00,35.1,35.1,30.13,NW,315,0.0,0.0,100,0.00,,,0.42,WUHU216DAVISWMX,2013-12-24 04:08:00,
2013-12-23 23:13:00,35.2,35.2,30.13,NW,315,0.0,0.0,100,0.00,,,0.42,WUHU216DAVISWMX,2013-12-24 04:13:00,
2013-12-23 23:18:00,35.2,35.2,30.14,NW,315,0.0,0.0,100,0.00,,,0.42,WUHU216DAVISWMX,2013-12-24 04:18:00,
2013-12-23 23:23:00,35.3,35.3,30.13,WNW,294,0.0,1.0,100,0.00,,,0.42,WUHU216DAVISWMX,2013-12-24 04:23:00,
2013-12-23 23:28:00,35.3,35.3,30.13,NW,320,0.0,1.0,100,0.00,,,0.42,WUHU216DAVISWMX,2013-12-24 04:28:00,
2013-12-23 23:33:00,35.2,35.2,30.13,NW,311,0.0,0.0,100,0.00,,,0.42,WUHU216DAVISWMX,2013-12-24 04:33:00,
2013-12-23 23:38:00,35.1,35.1,30.13,NW,311,0.0,0.0,100,0.00,,,0.42,WUHU216DAVISWMX,2013-12-24 04:38:00,
2013-12-23 23:43:00,35.0,35.0,30.13,NW,311,0.0,0.0,100,0.00,,,0.42,WUHU216DAVISWMX,2013-12-24 04:43:00,
2013-12-23 23:48:00,35.0,35.0,30.14,NW,311,0.0,0.0,100,0.00,,,0.42,WUHU216DAVISWMX,2013-12-24 04:48:00,
2013-12-23 23:53:00,34.8,34.8,30.14,NW,311,0.0,0.0,100,0.00,,,0.42,WUHU216DAVISWMX,2013-12-24 04:53:00,
2013-12-23 23:58:00,34.8,34.8,30.14,NW,311,0.0,0.0,100,0.00,,,0.42,WUHU216DAVISWMX,2013-12-24 04:58:00,